sensor_id;sensor_type;location;lat;lon;timestamp;P1;durP1;ratioP1;P2;durP2;ratioP2
57317;SDS011;43157;50.982;18.132;2022-12-24T00:02:13;42.70;;;20.50;;
57317;SDS011;43157;50.982;18.132;2022-12-24T00:04:39;39.20;;;19.90;;
57317;SDS011;43157;50.982;18.132;2022-12-24T00:07:04;45.20;;;18.70;;
57317;SDS011;43157;50.982;18.132;2022-12-24T00:09:30;42.60;;;18.70;;
57317;SDS011;43157;50.982;18.132;2022-12-24T00:11:55;42.10;;;19.30;;
57317;SDS011;43157;50.982;18.132;2022-12-24T00:14:21;40.10;;;17.90;;
57317;SDS011;43157;50.982;18.132;2022-12-24T00:16:46;36.50;;;16.40;;
57317;SDS011;43157;50.982;18.132;2022-12-24T00:19:12;32.60;;;15.30;;
57317;SDS011;43157;50.982;18.132;2022-12-24T00:21:38;37.90;;;16.00;;
57317;SDS011;43157;50.982;18.132;2022-12-24T00:24:03;34.10;;;17.10;;
57317;SDS011;43157;50.982;18.132;2022-12-24T00:26:30;39.30;;;16.50;;
57317;SDS011;43157;50.982;18.132;2022-12-24T00:28:56;40.40;;;19.70;;
57317;SDS011;43157;50.982;18.132;2022-12-24T00:31:22;30.80;;;14.60;;
57317;SDS011;43157;50.982;18.132;2022-12-24T00:33:49;51.40;;;24.70;;
57317;SDS011;43157;50.982;18.132;2022-12-24T00:36:15;48.10;;;23.50;;
57317;SDS011;43157;50.982;18.132;2022-12-24T00:38:41;41.50;;;17.50;;
57317;SDS011;43157;50.982;18.132;2022-12-24T00:41:07;37.10;;;16.60;;
57317;SDS011;43157;50.982;18.132;2022-12-24T00:43:49;28.10;;;14.10;;
57317;SDS011;43157;50.982;18.132;2022-12-24T00:46:26;28.60;;;12.70;;
57317;SDS011;43157;50.982;18.132;2022-12-24T00:48:53;29.10;;;12.50;;
57317;SDS011;43157;50.982;18.132;2022-12-24T00:51:19;33.10;;;13.50;;
57317;SDS011;43157;50.982;18.132;2022-12-24T00:53:45;27.40;;;12.10;;
57317;SDS011;43157;50.982;18.132;2022-12-24T00:56:11;33.30;;;14.90;;
57317;SDS011;43157;50.982;18.132;2022-12-24T00:58:36;32.40;;;14.30;;
57317;SDS011;43157;50.982;18.132;2022-12-24T01:01:02;34.30;;;16.10;;
57317;SDS011;43157;50.982;18.132;2022-12-24T01:03:28;34.70;;;15.40;;
57317;SDS011;43157;50.982;18.132;2022-12-24T01:06:03;35.90;;;17.50;;
57317;SDS011;43157;50.982;18.132;2022-12-24T01:08:30;28.70;;;14.70;;
57317;SDS011;43157;50.982;18.132;2022-12-24T01:10:56;28.50;;;15.40;;
57317;SDS011;43157;50.982;18.132;2022-12-24T01:13:22;33.70;;;15.90;;
57317;SDS011;43157;50.982;18.132;2022-12-24T01:15:48;27.10;;;14.00;;
57317;SDS011;43157;50.982;18.132;2022-12-24T01:18:13;30.30;;;15.20;;
57317;SDS011;43157;50.982;18.132;2022-12-24T01:20:40;31.80;;;15.80;;
57317;SDS011;43157;50.982;18.132;2022-12-24T01:23:06;29.00;;;12.90;;
57317;SDS011;43157;50.982;18.132;2022-12-24T01:25:31;30.30;;;14.70;;
57317;SDS011;43157;50.982;18.132;2022-12-24T01:27:57;28.80;;;13.00;;
57317;SDS011;43157;50.982;18.132;2022-12-24T01:30:22;31.70;;;14.50;;
57317;SDS011;43157;50.982;18.132;2022-12-24T01:32:48;31.90;;;14.10;;
57317;SDS011;43157;50.982;18.132;2022-12-24T01:35:13;30.80;;;14.00;;
57317;SDS011;43157;50.982;18.132;2022-12-24T01:37:40;29.30;;;12.80;;
57317;SDS011;43157;50.982;18.132;2022-12-24T01:40:07;29.80;;;14.20;;
57317;SDS011;43157;50.982;18.132;2022-12-24T01:42:55;34.00;;;14.70;;
57317;SDS011;43157;50.982;18.132;2022-12-24T01:45:46;32.40;;;14.10;;
57317;SDS011;43157;50.982;18.132;2022-12-24T01:51:08;34.50;;;17.20;;
57317;SDS011;43157;50.982;18.132;2022-12-24T01:53:42;26.70;;;12.70;;
57317;SDS011;43157;50.982;18.132;2022-12-24T01:56:10;24.20;;;11.50;;
57317;SDS011;43157;50.982;18.132;2022-12-24T01:58:36;27.10;;;13.40;;
57317;SDS011;43157;50.982;18.132;2022-12-24T02:01:04;28.50;;;13.40;;
57317;SDS011;43157;50.982;18.132;2022-12-24T02:03:30;26.20;;;11.80;;
57317;SDS011;43157;50.982;18.132;2022-12-24T02:05:56;27.20;;;12.10;;
57317;SDS011;43157;50.982;18.132;2022-12-24T02:08:22;31.00;;;15.40;;
57317;SDS011;43157;50.982;18.132;2022-12-24T02:10:48;37.70;;;19.50;;
57317;SDS011;43157;50.982;18.132;2022-12-24T02:13:15;31.10;;;16.80;;
57317;SDS011;43157;50.982;18.132;2022-12-24T02:27:00;22.50;;;11.30;;
57317;SDS011;43157;50.982;18.132;2022-12-24T02:32:40;24.50;;;10.40;;
57317;SDS011;43157;50.982;18.132;2022-12-24T02:37:49;19.70;;;9.40;;
57317;SDS011;43157;50.982;18.132;2022-12-24T02:42:49;18.90;;;8.50;;
57317;SDS011;43157;50.982;18.132;2022-12-24T02:45:20;20.00;;;9.10;;
57317;SDS011;43157;50.982;18.132;2022-12-24T02:47:53;22.50;;;10.30;;
57317;SDS011;43157;50.982;18.132;2022-12-24T02:50:19;19.50;;;9.60;;
57317;SDS011;43157;50.982;18.132;2022-12-24T02:52:46;21.60;;;10.40;;
57317;SDS011;43157;50.982;18.132;2022-12-24T02:58:24;18.30;;;8.90;;
57317;SDS011;43157;50.982;18.132;2022-12-24T03:06:27;19.20;;;9.10;;
57317;SDS011;43157;50.982;18.132;2022-12-24T03:11:43;23.90;;;10.80;;
57317;SDS011;43157;50.982;18.132;2022-12-24T03:14:12;21.10;;;9.80;;
57317;SDS011;43157;50.982;18.132;2022-12-24T03:16:39;22.40;;;10.30;;
57317;SDS011;43157;50.982;18.132;2022-12-24T03:19:06;26.60;;;12.60;;
57317;SDS011;43157;50.982;18.132;2022-12-24T03:21:32;24.80;;;11.50;;
57317;SDS011;43157;50.982;18.132;2022-12-24T03:24:00;24.80;;;13.20;;
57317;SDS011;43157;50.982;18.132;2022-12-24T03:26:26;25.40;;;12.40;;
57317;SDS011;43157;50.982;18.132;2022-12-24T03:28:53;24.90;;;12.40;;
57317;SDS011;43157;50.982;18.132;2022-12-24T03:31:19;25.90;;;11.00;;
57317;SDS011;43157;50.982;18.132;2022-12-24T03:33:45;27.90;;;12.90;;
57317;SDS011;43157;50.982;18.132;2022-12-24T03:36:12;26.00;;;12.50;;
57317;SDS011;43157;50.982;18.132;2022-12-24T03:38:37;26.00;;;12.60;;
57317;SDS011;43157;50.982;18.132;2022-12-24T03:41:03;26.40;;;11.90;;
57317;SDS011;43157;50.982;18.132;2022-12-24T03:43:30;23.70;;;11.90;;
57317;SDS011;43157;50.982;18.132;2022-12-24T03:45:55;24.70;;;13.20;;
57317;SDS011;43157;50.982;18.132;2022-12-24T03:48:21;25.40;;;12.40;;
57317;SDS011;43157;50.982;18.132;2022-12-24T03:50:46;23.70;;;10.70;;
57317;SDS011;43157;50.982;18.132;2022-12-24T03:53:12;26.30;;;13.70;;
57317;SDS011;43157;50.982;18.132;2022-12-24T03:55:37;26.10;;;12.30;;
57317;SDS011;43157;50.982;18.132;2022-12-24T03:58:03;26.00;;;12.60;;
57317;SDS011;43157;50.982;18.132;2022-12-24T04:00:30;24.90;;;11.90;;
57317;SDS011;43157;50.982;18.132;2022-12-24T04:02:55;26.40;;;13.10;;
57317;SDS011;43157;50.982;18.132;2022-12-24T04:05:21;22.50;;;10.30;;
57317;SDS011;43157;50.982;18.132;2022-12-24T04:07:47;23.20;;;10.60;;
57317;SDS011;43157;50.982;18.132;2022-12-24T04:10:13;25.20;;;10.70;;
57317;SDS011;43157;50.982;18.132;2022-12-24T04:12:39;22.40;;;11.00;;
57317;SDS011;43157;50.982;18.132;2022-12-24T04:15:05;23.30;;;11.10;;
57317;SDS011;43157;50.982;18.132;2022-12-24T04:17:31;22.40;;;10.20;;
57317;SDS011;43157;50.982;18.132;2022-12-24T04:19:57;21.60;;;10.20;;
57317;SDS011;43157;50.982;18.132;2022-12-24T04:22:23;20.60;;;10.10;;
57317;SDS011;43157;50.982;18.132;2022-12-24T04:24:48;20.80;;;9.50;;
57317;SDS011;43157;50.982;18.132;2022-12-24T04:27:14;21.30;;;9.00;;
57317;SDS011;43157;50.982;18.132;2022-12-24T04:29:40;25.40;;;10.00;;
57317;SDS011;43157;50.982;18.132;2022-12-24T04:32:06;17.50;;;8.00;;
57317;SDS011;43157;50.982;18.132;2022-12-24T04:34:31;19.60;;;9.10;;
57317;SDS011;43157;50.982;18.132;2022-12-24T04:36:57;21.00;;;9.40;;
57317;SDS011;43157;50.982;18.132;2022-12-24T04:39:22;19.20;;;8.00;;
57317;SDS011;43157;50.982;18.132;2022-12-24T04:41:48;17.80;;;8.60;;
57317;SDS011;43157;50.982;18.132;2022-12-24T04:44:13;18.80;;;9.00;;
57317;SDS011;43157;50.982;18.132;2022-12-24T04:46:39;18.90;;;8.50;;
57317;SDS011;43157;50.982;18.132;2022-12-24T04:49:06;19.20;;;7.90;;
57317;SDS011;43157;50.982;18.132;2022-12-24T04:51:32;17.20;;;7.80;;
57317;SDS011;43157;50.982;18.132;2022-12-24T04:53:58;17.10;;;7.80;;
57317;SDS011;43157;50.982;18.132;2022-12-24T04:56:25;17.80;;;7.90;;
57317;SDS011;43157;50.982;18.132;2022-12-24T04:58:53;18.20;;;7.30;;
57317;SDS011;43157;50.982;18.132;2022-12-24T05:01:22;17.60;;;7.20;;
57317;SDS011;43157;50.982;18.132;2022-12-24T05:03:49;17.20;;;7.30;;
57317;SDS011;43157;50.982;18.132;2022-12-24T05:06:17;16.30;;;7.10;;
57317;SDS011;43157;50.982;18.132;2022-12-24T05:08:48;18.10;;;7.40;;
57317;SDS011;43157;50.982;18.132;2022-12-24T05:11:14;15.40;;;6.60;;
57317;SDS011;43157;50.982;18.132;2022-12-24T05:13:41;14.70;;;5.70;;
57317;SDS011;43157;50.982;18.132;2022-12-24T05:16:08;13.20;;;5.60;;
57317;SDS011;43157;50.982;18.132;2022-12-24T05:18:34;13.00;;;5.40;;
57317;SDS011;43157;50.982;18.132;2022-12-24T05:21:00;12.60;;;5.00;;
57317;SDS011;43157;50.982;18.132;2022-12-24T05:23:25;13.10;;;5.10;;
57317;SDS011;43157;50.982;18.132;2022-12-24T05:29:01;12.40;;;4.70;;
57317;SDS011;43157;50.982;18.132;2022-12-24T05:31:28;13.20;;;4.70;;
57317;SDS011;43157;50.982;18.132;2022-12-24T05:33:55;9.00;;;3.30;;
57317;SDS011;43157;50.982;18.132;2022-12-24T05:36:21;9.30;;;3.20;;
57317;SDS011;43157;50.982;18.132;2022-12-24T05:38:47;9.20;;;3.70;;
57317;SDS011;43157;50.982;18.132;2022-12-24T05:41:13;10.60;;;3.20;;
57317;SDS011;43157;50.982;18.132;2022-12-24T05:43:39;9.50;;;3.70;;
57317;SDS011;43157;50.982;18.132;2022-12-24T05:46:06;11.10;;;4.00;;
57317;SDS011;43157;50.982;18.132;2022-12-24T05:48:34;10.20;;;3.60;;
57317;SDS011;43157;50.982;18.132;2022-12-24T05:51:02;10.60;;;4.20;;
57317;SDS011;43157;50.982;18.132;2022-12-24T05:53:30;11.20;;;3.50;;
57317;SDS011;43157;50.982;18.132;2022-12-24T05:56:07;9.40;;;3.40;;
57317;SDS011;43157;50.982;18.132;2022-12-24T05:58:34;11.10;;;4.10;;
57317;SDS011;43157;50.982;18.132;2022-12-24T06:01:01;8.50;;;2.80;;
57317;SDS011;43157;50.982;18.132;2022-12-24T06:03:27;11.30;;;3.90;;
57317;SDS011;43157;50.982;18.132;2022-12-24T06:06:00;12.70;;;4.40;;
57317;SDS011;43157;50.982;18.132;2022-12-24T06:08:29;10.30;;;4.00;;
57317;SDS011;43157;50.982;18.132;2022-12-24T06:10:59;12.50;;;4.00;;
57317;SDS011;43157;50.982;18.132;2022-12-24T06:13:26;12.60;;;4.20;;
57317;SDS011;43157;50.982;18.132;2022-12-24T06:15:56;10.90;;;4.10;;
57317;SDS011;43157;50.982;18.132;2022-12-24T06:18:22;11.20;;;3.90;;
57317;SDS011;43157;50.982;18.132;2022-12-24T06:20:54;9.80;;;3.90;;
57317;SDS011;43157;50.982;18.132;2022-12-24T06:23:21;12.40;;;4.40;;
57317;SDS011;43157;50.982;18.132;2022-12-24T06:25:48;15.60;;;6.30;;
57317;SDS011;43157;50.982;18.132;2022-12-24T06:28:14;18.00;;;8.50;;
57317;SDS011;43157;50.982;18.132;2022-12-24T06:30:39;14.20;;;5.70;;
57317;SDS011;43157;50.982;18.132;2022-12-24T06:33:05;11.80;;;4.40;;
57317;SDS011;43157;50.982;18.132;2022-12-24T06:35:31;12.40;;;4.20;;
57317;SDS011;43157;50.982;18.132;2022-12-24T06:37:57;14.40;;;3.90;;
57317;SDS011;43157;50.982;18.132;2022-12-24T06:40:24;10.30;;;3.90;;
57317;SDS011;43157;50.982;18.132;2022-12-24T06:42:50;10.20;;;3.70;;
57317;SDS011;43157;50.982;18.132;2022-12-24T06:45:16;11.70;;;3.70;;
57317;SDS011;43157;50.982;18.132;2022-12-24T06:47:42;13.50;;;4.50;;
57317;SDS011;43157;50.982;18.132;2022-12-24T06:50:07;13.80;;;3.40;;
57317;SDS011;43157;50.982;18.132;2022-12-24T06:52:33;13.30;;;3.80;;
57317;SDS011;43157;50.982;18.132;2022-12-24T06:54:59;13.20;;;4.40;;
57317;SDS011;43157;50.982;18.132;2022-12-24T06:57:24;10.00;;;3.30;;
57317;SDS011;43157;50.982;18.132;2022-12-24T06:59:50;8.90;;;3.10;;
57317;SDS011;43157;50.982;18.132;2022-12-24T07:02:15;9.90;;;3.50;;
57317;SDS011;43157;50.982;18.132;2022-12-24T07:04:41;8.70;;;2.80;;
57317;SDS011;43157;50.982;18.132;2022-12-24T07:07:06;12.70;;;3.80;;
57317;SDS011;43157;50.982;18.132;2022-12-24T07:09:32;12.70;;;3.80;;
57317;SDS011;43157;50.982;18.132;2022-12-24T07:11:57;9.50;;;3.10;;
57317;SDS011;43157;50.982;18.132;2022-12-24T07:14:23;10.20;;;3.30;;
57317;SDS011;43157;50.982;18.132;2022-12-24T07:16:49;10.80;;;3.90;;
57317;SDS011;43157;50.982;18.132;2022-12-24T07:19:14;9.10;;;3.70;;
57317;SDS011;43157;50.982;18.132;2022-12-24T07:21:40;11.30;;;3.80;;
57317;SDS011;43157;50.982;18.132;2022-12-24T07:24:05;10.10;;;3.00;;
57317;SDS011;43157;50.982;18.132;2022-12-24T07:26:31;11.70;;;3.60;;
57317;SDS011;43157;50.982;18.132;2022-12-24T07:28:56;10.70;;;3.50;;
57317;SDS011;43157;50.982;18.132;2022-12-24T07:31:22;10.20;;;3.10;;
57317;SDS011;43157;50.982;18.132;2022-12-24T07:33:48;8.90;;;2.60;;
57317;SDS011;43157;50.982;18.132;2022-12-24T07:36:17;11.10;;;4.00;;
57317;SDS011;43157;50.982;18.132;2022-12-24T07:38:43;10.30;;;3.90;;
57317;SDS011;43157;50.982;18.132;2022-12-24T07:41:09;8.50;;;2.90;;
57317;SDS011;43157;50.982;18.132;2022-12-24T07:43:35;11.10;;;4.10;;
57317;SDS011;43157;50.982;18.132;2022-12-24T07:46:01;9.30;;;3.80;;
57317;SDS011;43157;50.982;18.132;2022-12-24T07:48:27;9.90;;;3.50;;
57317;SDS011;43157;50.982;18.132;2022-12-24T07:50:54;8.50;;;2.70;;
57317;SDS011;43157;50.982;18.132;2022-12-24T07:53:20;7.50;;;2.20;;
57317;SDS011;43157;50.982;18.132;2022-12-24T07:55:46;8.00;;;2.80;;
57317;SDS011;43157;50.982;18.132;2022-12-24T07:58:11;9.40;;;3.70;;
57317;SDS011;43157;50.982;18.132;2022-12-24T08:00:37;7.90;;;2.70;;
57317;SDS011;43157;50.982;18.132;2022-12-24T08:03:02;11.30;;;4.50;;
57317;SDS011;43157;50.982;18.132;2022-12-24T08:05:28;9.70;;;3.80;;
57317;SDS011;43157;50.982;18.132;2022-12-24T08:08:00;9.00;;;3.10;;
57317;SDS011;43157;50.982;18.132;2022-12-24T08:10:26;20.40;;;9.10;;
57317;SDS011;43157;50.982;18.132;2022-12-24T08:12:51;17.00;;;8.20;;
57317;SDS011;43157;50.982;18.132;2022-12-24T08:15:17;17.00;;;7.00;;
57317;SDS011;43157;50.982;18.132;2022-12-24T08:17:43;10.90;;;4.10;;
57317;SDS011;43157;50.982;18.132;2022-12-24T08:20:09;17.10;;;5.20;;
57317;SDS011;43157;50.982;18.132;2022-12-24T08:22:35;11.90;;;4.10;;
57317;SDS011;43157;50.982;18.132;2022-12-24T08:25:01;10.60;;;4.00;;
57317;SDS011;43157;50.982;18.132;2022-12-24T08:27:26;10.60;;;3.50;;
57317;SDS011;43157;50.982;18.132;2022-12-24T08:29:52;11.90;;;3.60;;
57317;SDS011;43157;50.982;18.132;2022-12-24T08:32:18;12.70;;;4.70;;
57317;SDS011;43157;50.982;18.132;2022-12-24T08:34:43;14.80;;;5.20;;
57317;SDS011;43157;50.982;18.132;2022-12-24T08:37:12;14.40;;;5.00;;
57317;SDS011;43157;50.982;18.132;2022-12-24T08:39:40;18.20;;;6.60;;
57317;SDS011;43157;50.982;18.132;2022-12-24T08:42:06;21.70;;;8.30;;
57317;SDS011;43157;50.982;18.132;2022-12-24T08:44:31;26.10;;;11.50;;
57317;SDS011;43157;50.982;18.132;2022-12-24T08:46:57;20.80;;;9.50;;
57317;SDS011;43157;50.982;18.132;2022-12-24T08:49:22;25.20;;;10.60;;
57317;SDS011;43157;50.982;18.132;2022-12-24T08:51:49;31.10;;;14.20;;
57317;SDS011;43157;50.982;18.132;2022-12-24T08:54:15;22.40;;;8.80;;
57317;SDS011;43157;50.982;18.132;2022-12-24T08:56:41;18.50;;;7.90;;
57317;SDS011;43157;50.982;18.132;2022-12-24T08:59:06;21.60;;;9.70;;
57317;SDS011;43157;50.982;18.132;2022-12-24T09:01:32;22.80;;;10.70;;
57317;SDS011;43157;50.982;18.132;2022-12-24T09:04:00;26.90;;;11.20;;
57317;SDS011;43157;50.982;18.132;2022-12-24T09:06:26;18.70;;;8.60;;
57317;SDS011;43157;50.982;18.132;2022-12-24T09:08:51;18.30;;;9.30;;
57317;SDS011;43157;50.982;18.132;2022-12-24T09:11:18;16.10;;;7.70;;
57317;SDS011;43157;50.982;18.132;2022-12-24T09:13:45;14.90;;;6.90;;
57317;SDS011;43157;50.982;18.132;2022-12-24T09:16:11;19.90;;;8.50;;
57317;SDS011;43157;50.982;18.132;2022-12-24T09:18:37;15.60;;;7.50;;
57317;SDS011;43157;50.982;18.132;2022-12-24T09:21:04;17.60;;;8.30;;
57317;SDS011;43157;50.982;18.132;2022-12-24T09:23:34;16.10;;;8.00;;
57317;SDS011;43157;50.982;18.132;2022-12-24T09:26:04;13.30;;;6.30;;
57317;SDS011;43157;50.982;18.132;2022-12-24T09:28:31;12.40;;;6.30;;
57317;SDS011;43157;50.982;18.132;2022-12-24T09:31:01;16.30;;;7.50;;
57317;SDS011;43157;50.982;18.132;2022-12-24T09:33:29;16.80;;;6.50;;
57317;SDS011;43157;50.982;18.132;2022-12-24T09:35:56;20.60;;;9.60;;
57317;SDS011;43157;50.982;18.132;2022-12-24T09:38:21;17.30;;;9.00;;
57317;SDS011;43157;50.982;18.132;2022-12-24T09:40:47;11.40;;;5.20;;
57317;SDS011;43157;50.982;18.132;2022-12-24T09:43:24;13.10;;;6.00;;
57317;SDS011;43157;50.982;18.132;2022-12-24T09:48:44;13.60;;;6.20;;
57317;SDS011;43157;50.982;18.132;2022-12-24T09:51:19;16.20;;;7.30;;
57317;SDS011;43157;50.982;18.132;2022-12-24T09:54:05;15.40;;;7.00;;
57317;SDS011;43157;50.982;18.132;2022-12-24T09:56:39;13.10;;;5.70;;
57317;SDS011;43157;50.982;18.132;2022-12-24T09:59:09;13.00;;;5.80;;
57317;SDS011;43157;50.982;18.132;2022-12-24T10:01:38;15.40;;;7.20;;
57317;SDS011;43157;50.982;18.132;2022-12-24T10:04:14;13.60;;;5.60;;
57317;SDS011;43157;50.982;18.132;2022-12-24T10:22:49;13.90;;;6.00;;
57317;SDS011;43157;50.982;18.132;2022-12-24T10:25:37;13.20;;;5.90;;
57317;SDS011;43157;50.982;18.132;2022-12-24T10:28:13;20.30;;;7.40;;
57317;SDS011;43157;50.982;18.132;2022-12-24T10:30:41;23.50;;;9.90;;
57317;SDS011;43157;50.982;18.132;2022-12-24T10:33:21;24.60;;;10.00;;
57317;SDS011;43157;50.982;18.132;2022-12-24T10:35:57;14.80;;;6.20;;
57317;SDS011;43157;50.982;18.132;2022-12-24T10:38:23;15.80;;;6.80;;
57317;SDS011;43157;50.982;18.132;2022-12-24T10:40:49;21.40;;;8.50;;
57317;SDS011;43157;50.982;18.132;2022-12-24T10:43:16;22.50;;;8.30;;
57317;SDS011;43157;50.982;18.132;2022-12-24T10:45:47;15.10;;;5.90;;
57317;SDS011;43157;50.982;18.132;2022-12-24T10:48:22;16.50;;;6.80;;
57317;SDS011;43157;50.982;18.132;2022-12-24T10:51:02;14.30;;;6.90;;
57317;SDS011;43157;50.982;18.132;2022-12-24T10:56:31;18.80;;;8.20;;
57317;SDS011;43157;50.982;18.132;2022-12-24T10:58:56;18.00;;;7.70;;
57317;SDS011;43157;50.982;18.132;2022-12-24T11:04:12;12.70;;;4.80;;
57317;SDS011;43157;50.982;18.132;2022-12-24T11:07:00;18.10;;;8.20;;
57317;SDS011;43157;50.982;18.132;2022-12-24T11:09:28;11.60;;;5.00;;
57317;SDS011;43157;50.982;18.132;2022-12-24T11:12:02;12.90;;;5.10;;
57317;SDS011;43157;50.982;18.132;2022-12-24T11:14:32;13.10;;;6.40;;
57317;SDS011;43157;50.982;18.132;2022-12-24T11:16:59;12.70;;;5.30;;
57317;SDS011;43157;50.982;18.132;2022-12-24T11:19:29;14.30;;;5.90;;
57317;SDS011;43157;50.982;18.132;2022-12-24T11:21:57;14.70;;;6.70;;
57317;SDS011;43157;50.982;18.132;2022-12-24T11:24:30;18.20;;;7.80;;
57317;SDS011;43157;50.982;18.132;2022-12-24T11:27:21;20.60;;;8.80;;
57317;SDS011;43157;50.982;18.132;2022-12-24T11:32:41;13.90;;;6.70;;
57317;SDS011;43157;50.982;18.132;2022-12-24T11:35:18;17.70;;;7.50;;
57317;SDS011;43157;50.982;18.132;2022-12-24T11:38:07;14.30;;;6.50;;
57317;SDS011;43157;50.982;18.132;2022-12-24T11:40:43;14.60;;;6.00;;
57317;SDS011;43157;50.982;18.132;2022-12-24T11:43:17;15.30;;;7.40;;
57317;SDS011;43157;50.982;18.132;2022-12-24T11:46:10;21.30;;;11.30;;
57317;SDS011;43157;50.982;18.132;2022-12-24T11:48:36;15.10;;;6.80;;
57317;SDS011;43157;50.982;18.132;2022-12-24T11:51:02;17.80;;;9.10;;
57317;SDS011;43157;50.982;18.132;2022-12-24T11:53:40;17.50;;;8.00;;
57317;SDS011;43157;50.982;18.132;2022-12-24T11:56:14;19.90;;;9.10;;
57317;SDS011;43157;50.982;18.132;2022-12-24T11:58:50;12.80;;;6.20;;
57317;SDS011;43157;50.982;18.132;2022-12-24T12:04:01;34.60;;;17.30;;
57317;SDS011;43157;50.982;18.132;2022-12-24T12:07:02;23.60;;;12.50;;
57317;SDS011;43157;50.982;18.132;2022-12-24T12:09:33;19.10;;;10.40;;
57317;SDS011;43157;50.982;18.132;2022-12-24T12:12:04;19.60;;;7.80;;
57317;SDS011;43157;50.982;18.132;2022-12-24T12:14:39;16.90;;;7.40;;
57317;SDS011;43157;50.982;18.132;2022-12-24T12:17:33;16.90;;;7.90;;
57317;SDS011;43157;50.982;18.132;2022-12-24T12:20:04;26.00;;;11.10;;
57317;SDS011;43157;50.982;18.132;2022-12-24T12:22:41;22.10;;;9.70;;
57317;SDS011;43157;50.982;18.132;2022-12-24T12:27:59;30.30;;;13.40;;
57317;SDS011;43157;50.982;18.132;2022-12-24T12:30:26;30.10;;;14.00;;
57317;SDS011;43157;50.982;18.132;2022-12-24T12:35:35;40.10;;;19.10;;
57317;SDS011;43157;50.982;18.132;2022-12-24T12:38:04;38.80;;;19.50;;
57317;SDS011;43157;50.982;18.132;2022-12-24T12:51:12;20.90;;;10.50;;
57317;SDS011;43157;50.982;18.132;2022-12-24T12:54:06;19.90;;;9.60;;
57317;SDS011;43157;50.982;18.132;2022-12-24T12:56:50;20.80;;;10.40;;
57317;SDS011;43157;50.982;18.132;2022-12-24T12:59:28;27.90;;;14.00;;
57317;SDS011;43157;50.982;18.132;2022-12-24T13:02:16;24.80;;;11.10;;
57317;SDS011;43157;50.982;18.132;2022-12-24T13:21:24;30.90;;;15.10;;
57317;SDS011;43157;50.982;18.132;2022-12-24T13:34:48;24.80;;;10.90;;
57317;SDS011;43157;50.982;18.132;2022-12-24T13:37:20;47.40;;;18.00;;
57317;SDS011;43157;50.982;18.132;2022-12-24T13:42:45;40.00;;;16.80;;
57317;SDS011;43157;50.982;18.132;2022-12-24T13:56:07;36.60;;;17.80;;
57317;SDS011;43157;50.982;18.132;2022-12-24T13:58:38;26.10;;;13.30;;
57317;SDS011;43157;50.982;18.132;2022-12-24T14:01:08;51.50;;;24.90;;
57317;SDS011;43157;50.982;18.132;2022-12-24T14:03:39;36.90;;;20.90;;
57317;SDS011;43157;50.982;18.132;2022-12-24T14:06:12;38.70;;;19.90;;
57317;SDS011;43157;50.982;18.132;2022-12-24T14:08:47;31.30;;;13.40;;
57317;SDS011;43157;50.982;18.132;2022-12-24T14:19:02;52.60;;;23.20;;
57317;SDS011;43157;50.982;18.132;2022-12-24T14:21:35;54.10;;;22.80;;
57317;SDS011;43157;50.982;18.132;2022-12-24T14:24:02;46.70;;;23.30;;
57317;SDS011;43157;50.982;18.132;2022-12-24T14:26:32;50.10;;;26.40;;
57317;SDS011;43157;50.982;18.132;2022-12-24T14:29:04;35.10;;;17.20;;
57317;SDS011;43157;50.982;18.132;2022-12-24T14:31:32;44.50;;;20.50;;
57317;SDS011;43157;50.982;18.132;2022-12-24T14:34:05;43.00;;;20.50;;
57317;SDS011;43157;50.982;18.132;2022-12-24T14:36:36;35.70;;;16.10;;
57317;SDS011;43157;50.982;18.132;2022-12-24T14:39:04;58.00;;;28.50;;
57317;SDS011;43157;50.982;18.132;2022-12-24T14:41:49;50.40;;;26.50;;
57317;SDS011;43157;50.982;18.132;2022-12-24T15:03:28;53.30;;;21.90;;
57317;SDS011;43157;50.982;18.132;2022-12-24T15:05:56;68.40;;;29.10;;
57317;SDS011;43157;50.982;18.132;2022-12-24T15:08:28;143.80;;;50.60;;
57317;SDS011;43157;50.982;18.132;2022-12-24T15:16:04;58.40;;;24.00;;
57317;SDS011;43157;50.982;18.132;2022-12-24T15:18:35;77.20;;;27.10;;
57317;SDS011;43157;50.982;18.132;2022-12-24T15:21:04;117.20;;;41.80;;
57317;SDS011;43157;50.982;18.132;2022-12-24T15:23:33;61.90;;;24.70;;
57317;SDS011;43157;50.982;18.132;2022-12-24T15:28:44;88.20;;;36.30;;
57317;SDS011;43157;50.982;18.132;2022-12-24T15:31:14;84.40;;;33.50;;
57317;SDS011;43157;50.982;18.132;2022-12-24T15:33:42;88.50;;;34.80;;
57317;SDS011;43157;50.982;18.132;2022-12-24T15:36:08;83.00;;;33.20;;
57317;SDS011;43157;50.982;18.132;2022-12-24T15:38:35;76.30;;;30.30;;
57317;SDS011;43157;50.982;18.132;2022-12-24T15:41:07;76.50;;;29.10;;
57317;SDS011;43157;50.982;18.132;2022-12-24T15:43:39;39.30;;;16.80;;
57317;SDS011;43157;50.982;18.132;2022-12-24T15:48:17;36.10;;;16.00;;
57317;SDS011;43157;50.982;18.132;2022-12-24T15:50:49;39.60;;;17.20;;
57317;SDS011;43157;50.982;18.132;2022-12-24T15:53:21;30.00;;;12.70;;
57317;SDS011;43157;50.982;18.132;2022-12-24T15:56:05;30.20;;;10.10;;
57317;SDS011;43157;50.982;18.132;2022-12-24T15:58:32;23.70;;;8.90;;
57317;SDS011;43157;50.982;18.132;2022-12-24T16:01:00;36.10;;;12.40;;
57317;SDS011;43157;50.982;18.132;2022-12-24T16:03:29;36.20;;;11.10;;
57317;SDS011;43157;50.982;18.132;2022-12-24T16:06:06;33.90;;;9.80;;
57317;SDS011;43157;50.982;18.132;2022-12-24T16:08:33;25.90;;;7.90;;
57317;SDS011;43157;50.982;18.132;2022-12-24T16:16:13;26.10;;;8.40;;
57317;SDS011;43157;50.982;18.132;2022-12-24T16:21:27;29.00;;;9.30;;
57317;SDS011;43157;50.982;18.132;2022-12-24T16:23:55;19.20;;;6.80;;
57317;SDS011;43157;50.982;18.132;2022-12-24T16:26:22;30.00;;;10.70;;
57317;SDS011;43157;50.982;18.132;2022-12-24T16:28:48;19.10;;;6.70;;
57317;SDS011;43157;50.982;18.132;2022-12-24T16:31:18;101.00;;;29.10;;
57317;SDS011;43157;50.982;18.132;2022-12-24T16:33:53;106.90;;;31.10;;
57317;SDS011;43157;50.982;18.132;2022-12-24T16:36:20;185.60;;;51.40;;
57317;SDS011;43157;50.982;18.132;2022-12-24T16:38:45;295.00;;;84.50;;
57317;SDS011;43157;50.982;18.132;2022-12-24T16:41:30;72.90;;;28.30;;
57317;SDS011;43157;50.982;18.132;2022-12-24T16:44:15;64.40;;;22.80;;
57317;SDS011;43157;50.982;18.132;2022-12-24T16:46:41;25.30;;;6.80;;
57317;SDS011;43157;50.982;18.132;2022-12-24T16:49:08;51.40;;;16.50;;
57317;SDS011;43157;50.982;18.132;2022-12-24T16:51:43;35.90;;;10.20;;
57317;SDS011;43157;50.982;18.132;2022-12-24T16:54:10;135.40;;;40.30;;
57317;SDS011;43157;50.982;18.132;2022-12-24T16:56:37;38.00;;;10.40;;
57317;SDS011;43157;50.982;18.132;2022-12-24T16:59:04;52.00;;;14.40;;
57317;SDS011;43157;50.982;18.132;2022-12-24T17:01:31;35.50;;;9.60;;
57317;SDS011;43157;50.982;18.132;2022-12-24T17:03:56;32.10;;;9.60;;
57317;SDS011;43157;50.982;18.132;2022-12-24T17:06:21;28.90;;;9.40;;
57317;SDS011;43157;50.982;18.132;2022-12-24T17:08:47;32.40;;;11.30;;
57317;SDS011;43157;50.982;18.132;2022-12-24T17:11:13;36.60;;;13.30;;
57317;SDS011;43157;50.982;18.132;2022-12-24T17:13:39;42.30;;;16.20;;
57317;SDS011;43157;50.982;18.132;2022-12-24T17:16:05;29.00;;;10.60;;